Terminal Aerodrome Forecast
Issued by NWS Memphis, TN

Home | Current Version | Previous Version | Text Only | Print | Product List | Glossary On
Versions: 1 2 3 4 5 6 7 8 9 10 11 12 13
000
FTUS44 KMEG 312300
TAFMKL
TAF
KMKL 312330Z 0100/0124 35002KT P6SM VCSH SCT050 OVC080
     FM010600 00000KT 5SM BR BKN050 OVC120
      TEMPO 0109/0112 3SM BR
     FM011400 02004KT P6SM SCT050 BKN150=

USA.gov is the U.S. government's official web portal to all federal, state and local government web resources and services.